createdAt,value
2018-09-22T00:00:35.943Z,10.39
2018-09-22T00:01:35.979Z,10.38
2018-09-22T00:02:36.151Z,10.31
2018-09-22T00:03:36.020Z,10.29
2018-09-22T00:04:36.076Z,10.29
2018-09-22T00:05:36.042Z,10.28
2018-09-22T00:06:35.996Z,10.29
2018-09-22T00:07:36.008Z,10.28
2018-09-22T00:08:35.921Z,10.33
2018-09-22T00:09:36.048Z,10.26
2018-09-22T00:10:36.044Z,10.29
2018-09-22T00:11:36.164Z,10.2
2018-09-22T00:12:36.075Z,10.34
2018-09-22T00:13:36.015Z,10.28
2018-09-22T00:14:36.121Z,10.23
2018-09-22T00:15:36.147Z,10.19
2018-09-22T00:16:36.029Z,10.27
2018-09-22T00:17:35.998Z,10.24
2018-09-22T00:18:36.101Z,10.28
2018-09-22T00:19:35.925Z,10.25
2018-09-22T00:20:35.987Z,10.28
2018-09-22T00:21:36.167Z,10.23
2018-09-22T00:22:36.205Z,10.24
2018-09-22T00:23:36.195Z,10.26
2018-09-22T00:24:36.120Z,10.23
2018-09-22T00:25:35.935Z,10.14
2018-09-22T00:26:36.580Z,10.23
2018-09-22T00:27:35.972Z,10.16
2018-09-22T00:28:36.085Z,10.15
2018-09-22T00:29:36.051Z,10.15
2018-09-22T00:30:35.999Z,10.11
2018-09-22T00:31:36.196Z,10.17
2018-09-22T00:32:35.999Z,10.13
2018-09-22T00:33:36.168Z,10.07
2018-09-22T00:34:35.964Z,10.11
2018-09-22T00:35:36.047Z,10.05
2018-09-22T00:36:36.159Z,10.03
2018-09-22T00:37:36.110Z,10.07
2018-09-22T00:38:36.107Z,10.05
2018-09-22T00:39:36.132Z,10.01
2018-09-22T00:40:35.965Z,10.07
2018-09-22T00:41:35.935Z,10.01
2018-09-22T00:42:36.124Z,10
2018-09-22T00:43:36.070Z,10.03
2018-09-22T00:44:36.127Z,10.03
2018-09-22T00:45:35.993Z,9.95
2018-09-22T00:46:35.945Z,9.98
2018-09-22T00:47:35.939Z,9.95
2018-09-22T00:48:36.110Z,9.85
2018-09-22T00:49:35.915Z,9.89
2018-09-22T00:50:36.054Z,9.85
2018-09-22T00:51:36.022Z,9.83
2018-09-22T00:52:43.465Z,9.8
2018-09-22T00:53:35.947Z,9.79
2018-09-22T00:54:36.055Z,9.82
2018-09-22T00:55:36.087Z,9.77
2018-09-22T00:56:35.938Z,9.76
2018-09-22T00:57:36.136Z,9.71
2018-09-22T00:58:35.943Z,9.68
2018-09-22T00:59:35.928Z,9.72
2018-09-22T01:00:36.050Z,9.72
2018-09-22T01:01:35.939Z,9.73
2018-09-22T01:02:36.056Z,9.69
2018-09-22T01:03:36.224Z,9.68
2018-09-22T01:04:36.074Z,9.69
2018-09-22T01:05:35.935Z,9.68
2018-09-22T01:06:36.042Z,9.65
2018-09-22T01:07:35.895Z,9.62
2018-09-22T01:08:35.946Z,9.58
2018-09-22T01:09:35.901Z,9.57
2018-09-22T01:10:36.017Z,9.47
2018-09-22T01:11:36.101Z,9.46
2018-09-22T01:12:36.085Z,9.52
2018-09-22T01:13:36.100Z,9.43
2018-09-22T01:14:35.901Z,9.51
2018-09-22T01:15:36.401Z,9.42
2018-09-22T01:16:36.157Z,9.4
2018-09-22T01:17:35.948Z,9.41
2018-09-22T01:18:36.004Z,9.36
2018-09-22T01:19:35.989Z,9.42
2018-09-22T01:20:35.957Z,9.47
2018-09-22T01:21:35.887Z,9.51
2018-09-22T01:22:35.961Z,9.42
2018-09-22T01:23:36.083Z,9.29
2018-09-22T01:24:36.050Z,9.29
2018-09-22T01:25:36.054Z,9.3
2018-09-22T01:26:35.958Z,9.26
2018-09-22T01:27:36.021Z,9.34
2018-09-22T01:28:35.892Z,9.33
2018-09-22T01:29:35.969Z,9.31
2018-09-22T01:30:35.984Z,9.32
2018-09-22T01:31:36.045Z,9.36
2018-09-22T01:32:36.034Z,9.3
2018-09-22T01:33:35.899Z,9.35
2018-09-22T01:34:35.943Z,9.27
2018-09-22T01:35:36.108Z,9.23
2018-09-22T01:36:36.044Z,9.27
2018-09-22T01:37:36.008Z,9.12
2018-09-22T01:38:36.135Z,9.07
2018-09-22T01:39:36.135Z,9.1
2018-09-22T01:40:36.162Z,9.11
2018-09-22T01:41:35.898Z,9.09
2018-09-22T01:42:35.949Z,9.12
2018-09-22T01:43:36.083Z,9.09
2018-09-22T01:44:36.044Z,9.02
2018-09-22T01:45:36.093Z,8.98
2018-09-22T01:46:36.136Z,8.96
2018-09-22T01:47:36.099Z,8.92
2018-09-22T01:48:36.103Z,8.89
2018-09-22T01:49:36.151Z,8.89
2018-09-22T01:50:35.883Z,8.88
2018-09-22T01:51:36.127Z,8.88
2018-09-22T01:52:36.517Z,8.89
2018-09-22T01:53:35.901Z,8.9
2018-09-22T01:54:36.136Z,8.92
2018-09-22T01:55:35.924Z,8.97
2018-09-22T01:56:36.050Z,9.02
2018-09-22T01:57:35.889Z,8.98
2018-09-22T01:58:35.944Z,8.94
2018-09-22T01:59:36.051Z,9.01
2018-09-22T02:00:36.117Z,8.97
2018-09-22T02:01:36.169Z,8.87
2018-09-22T02:02:35.905Z,8.87
2018-09-22T02:03:36.070Z,8.81
2018-09-22T02:04:36.185Z,8.81
2018-09-22T02:05:35.942Z,8.8
2018-09-22T02:06:35.857Z,8.78
2018-09-22T02:07:35.931Z,8.81
2018-09-22T02:08:36.413Z,8.72
2018-09-22T02:09:35.869Z,8.77
2018-09-22T02:10:36.400Z,8.83
2018-09-22T02:11:35.931Z,8.68
2018-09-22T02:12:36.002Z,8.72
2018-09-22T02:13:36.148Z,8.78
2018-09-22T02:14:35.982Z,8.84
2018-09-22T02:15:36.095Z,8.8
2018-09-22T02:16:35.963Z,8.83
2018-09-22T02:17:36.034Z,8.68
2018-09-22T02:18:35.929Z,8.69
2018-09-22T02:19:37.119Z,8.77
2018-09-22T02:20:36.164Z,8.78
2018-09-22T02:21:35.952Z,8.73
2018-09-22T02:22:36.103Z,8.77
2018-09-22T02:23:36.273Z,8.74
2018-09-22T02:24:35.962Z,8.76
2018-09-22T02:25:35.954Z,8.76
2018-09-22T02:26:36.273Z,8.73
2018-09-22T02:27:35.899Z,8.65
2018-09-22T02:28:36.010Z,8.77
2018-09-22T02:29:35.936Z,8.74
2018-09-22T02:30:35.999Z,8.82
2018-09-22T02:31:35.957Z,8.88
2018-09-22T02:32:36.113Z,8.82
2018-09-22T02:33:35.891Z,8.81
2018-09-22T02:34:36.025Z,8.91
2018-09-22T02:35:36.163Z,8.91
2018-09-22T02:36:35.942Z,8.88
2018-09-22T02:37:35.918Z,8.85
2018-09-22T02:38:35.920Z,8.79
2018-09-22T02:39:35.919Z,8.79
2018-09-22T02:40:35.950Z,8.83
2018-09-22T02:41:36.413Z,8.78
2018-09-22T02:42:35.880Z,8.71
2018-09-22T02:43:35.880Z,8.68
2018-09-22T02:44:36.013Z,8.65
2018-09-22T02:45:35.935Z,8.61
2018-09-22T02:46:35.978Z,8.59
2018-09-22T02:47:35.922Z,8.5
2018-09-22T02:48:35.882Z,8.49
2018-09-22T02:49:36.028Z,8.53
2018-09-22T02:50:36.084Z,8.49
2018-09-22T02:51:36.030Z,8.53
2018-09-22T02:52:36.064Z,8.56
2018-09-22T02:53:36.043Z,8.58
2018-09-22T02:54:35.920Z,8.55
2018-09-22T02:55:35.852Z,8.53
2018-09-22T02:56:36.270Z,8.56
2018-09-22T02:57:35.877Z,8.5
2018-09-22T02:58:35.883Z,8.55
2018-09-22T02:59:35.933Z,8.57
2018-09-22T03:00:36.088Z,8.35
2018-09-22T03:01:36.637Z,8.38
2018-09-22T03:02:35.928Z,8.39
2018-09-22T03:03:36.301Z,8.37
2018-09-22T03:04:36.134Z,8.38
2018-09-22T03:05:36.343Z,8.38
2018-09-22T03:06:36.363Z,8.32
2018-09-22T03:07:36.002Z,8.29
2018-09-22T03:08:36.275Z,8.37
2018-09-22T03:09:35.985Z,8.32
2018-09-22T03:10:36.059Z,8.3
2018-09-22T03:11:36.257Z,8.28
2018-09-22T03:12:35.968Z,8.29
2018-09-22T03:13:36.095Z,8.29
2018-09-22T03:14:35.951Z,8.3
2018-09-22T03:15:36.076Z,8.29
2018-09-22T03:16:36.359Z,8.45
2018-09-22T03:17:36.036Z,8.38
2018-09-22T03:18:36.096Z,8.33
2018-09-22T03:19:36.110Z,8.38
2018-09-22T03:20:36.073Z,8.45
2018-09-22T03:21:36.084Z,8.46
2018-09-22T03:22:36.179Z,8.5
2018-09-22T03:23:35.966Z,8.53
2018-09-22T03:24:36.122Z,8.56
2018-09-22T03:25:35.925Z,8.52
2018-09-22T03:26:36.130Z,8.49
2018-09-22T03:27:36.034Z,8.54
2018-09-22T03:28:36.190Z,8.59
2018-09-22T03:29:36.183Z,8.56
2018-09-22T03:30:36.085Z,8.64
2018-09-22T03:31:36.183Z,8.61
2018-09-22T03:32:36.142Z,8.62
2018-09-22T03:33:35.996Z,8.63
2018-09-22T03:34:36.071Z,8.61
2018-09-22T03:35:35.945Z,8.64
2018-09-22T03:36:36.475Z,8.65
2018-09-22T03:37:35.961Z,8.64
2018-09-22T03:38:36.067Z,8.69
2018-09-22T03:39:35.911Z,8.67
2018-09-22T03:40:36.129Z,8.75
2018-09-22T03:41:36.000Z,8.77
2018-09-22T03:42:36.070Z,8.78
2018-09-22T03:43:36.150Z,8.72
2018-09-22T03:44:36.032Z,8.71
2018-09-22T03:45:36.468Z,8.72
2018-09-22T03:46:35.953Z,8.69
2018-09-22T03:47:36.021Z,8.68
2018-09-22T03:48:36.036Z,8.68
2018-09-22T03:49:36.069Z,8.68
2018-09-22T03:50:35.946Z,8.69
2018-09-22T03:51:36.096Z,8.75
2018-09-22T03:52:36.929Z,8.67
2018-09-22T03:53:36.157Z,8.7
2018-09-22T03:54:36.074Z,8.67
2018-09-22T03:55:36.183Z,8.63
2018-09-22T03:56:35.997Z,8.63
2018-09-22T03:57:35.996Z,8.59
2018-09-22T03:58:36.214Z,8.62
2018-09-22T03:59:35.937Z,8.64
2018-09-22T04:00:35.987Z,8.67
2018-09-22T04:01:35.894Z,8.66
2018-09-22T04:02:36.006Z,8.65
2018-09-22T04:03:36.007Z,8.65
2018-09-22T04:04:35.947Z,8.62
2018-09-22T04:05:35.973Z,8.67
2018-09-22T04:06:35.991Z,8.62
2018-09-22T04:07:35.945Z,8.6
2018-09-22T04:08:35.949Z,8.6
2018-09-22T04:09:36.055Z,8.55
2018-09-22T04:10:36.056Z,8.57
2018-09-22T04:11:36.089Z,8.61
2018-09-22T04:12:36.225Z,8.63
2018-09-22T04:13:35.937Z,8.62
2018-09-22T04:14:35.974Z,8.63
2018-09-22T04:15:35.928Z,8.59
2018-09-22T04:16:36.062Z,8.6
2018-09-22T04:17:35.996Z,8.56
2018-09-22T04:18:35.932Z,8.57
2018-09-22T04:19:36.009Z,8.57
2018-09-22T04:20:36.121Z,8.59
2018-09-22T04:21:36.142Z,8.55
2018-09-22T04:22:36.144Z,8.55
2018-09-22T04:23:36.187Z,8.55
2018-09-22T04:24:36.365Z,8.44
2018-09-22T04:25:35.939Z,8.49
2018-09-22T04:26:36.035Z,8.48
2018-09-22T04:27:36.200Z,8.45
2018-09-22T04:28:36.104Z,8.48
2018-09-22T04:29:36.503Z,8.46
2018-09-22T04:30:36.716Z,8.49
2018-09-22T04:31:36.071Z,8.48
2018-09-22T04:32:35.927Z,8.5
2018-09-22T04:33:36.045Z,8.49
2018-09-22T04:34:36.089Z,8.42
2018-09-22T04:35:36.060Z,8.47
2018-09-22T04:36:36.064Z,8.46
2018-09-22T04:37:36.302Z,8.45
2018-09-22T04:38:36.077Z,8.49
2018-09-22T04:39:36.117Z,8.47
2018-09-22T04:40:36.103Z,8.49
2018-09-22T04:41:36.110Z,8.45
2018-09-22T04:42:36.153Z,8.47
2018-09-22T04:43:36.056Z,8.41
2018-09-22T04:44:36.208Z,8.48
2018-09-22T04:45:36.843Z,8.4
2018-09-22T04:46:36.219Z,8.44
2018-09-22T04:47:35.977Z,8.45
2018-09-22T04:48:36.336Z,8.44
2018-09-22T04:49:35.993Z,8.47
2018-09-22T04:50:36.186Z,8.44
2018-09-22T04:51:36.154Z,8.42
2018-09-22T04:52:36.468Z,8.4
2018-09-22T04:53:36.176Z,8.37
2018-09-22T04:54:36.173Z,8.41
2018-09-22T04:55:36.079Z,8.38
2018-09-22T04:56:37.047Z,8.4
2018-09-22T04:57:36.507Z,8.43
2018-09-22T04:58:36.057Z,8.43
2018-09-22T04:59:36.013Z,8.43
2018-09-22T05:00:36.317Z,8.39
2018-09-22T05:01:36.041Z,8.39
2018-09-22T05:02:36.165Z,8.42
2018-09-22T05:03:36.062Z,8.38
2018-09-22T05:04:36.147Z,8.41
2018-09-22T05:05:36.095Z,8.38
2018-09-22T05:06:36.153Z,8.4
2018-09-22T05:07:36.114Z,8.42
2018-09-22T05:08:36.093Z,8.43
2018-09-22T05:09:36.107Z,8.37
2018-09-22T05:10:36.046Z,8.32
2018-09-22T05:11:36.183Z,8.34
2018-09-22T05:12:36.029Z,8.38
2018-09-22T05:13:36.206Z,8.38
2018-09-22T05:14:36.127Z,8.43
2018-09-22T05:15:36.122Z,8.41
2018-09-22T05:16:36.116Z,8.4
2018-09-22T05:17:36.266Z,8.44
2018-09-22T05:18:36.203Z,8.47
2018-09-22T05:19:36.182Z,8.49
2018-09-22T05:20:36.295Z,8.49
2018-09-22T05:21:36.125Z,8.52
2018-09-22T05:22:36.131Z,8.53
2018-09-22T05:23:36.030Z,8.5
2018-09-22T05:24:36.369Z,8.48
2018-09-22T05:25:36.077Z,8.46
2018-09-22T05:26:36.404Z,8.54
2018-09-22T05:27:36.108Z,8.57
2018-09-22T05:28:36.007Z,8.58
2018-09-22T05:29:36.036Z,8.57
2018-09-22T05:30:36.021Z,8.57
2018-09-22T05:31:36.057Z,8.51
2018-09-22T05:32:36.071Z,8.52
2018-09-22T05:33:36.511Z,8.53
2018-09-22T05:34:36.053Z,8.53
2018-09-22T05:35:36.022Z,8.5
2018-09-22T05:36:35.971Z,8.47
2018-09-22T05:37:36.122Z,8.42
2018-09-22T05:38:36.107Z,8.41
2018-09-22T05:39:36.093Z,8.42
2018-09-22T05:40:36.042Z,8.44
2018-09-22T05:41:36.293Z,8.45
2018-09-22T05:42:36.071Z,8.45
2018-09-22T05:43:36.102Z,8.44
2018-09-22T05:44:36.172Z,8.47
2018-09-22T05:45:36.077Z,8.42
2018-09-22T05:46:36.163Z,8.44
2018-09-22T05:47:36.107Z,8.46
2018-09-22T05:48:36.127Z,8.47
2018-09-22T05:49:36.202Z,8.48
2018-09-22T05:50:36.077Z,8.52
2018-09-22T05:51:36.034Z,8.59
2018-09-22T05:52:36.157Z,8.52
2018-09-22T05:53:36.218Z,8.52
2018-09-22T05:54:36.122Z,8.6
2018-09-22T05:55:36.112Z,8.61
2018-09-22T05:56:36.154Z,8.63
2018-09-22T05:57:36.089Z,8.69
2018-09-22T05:58:35.997Z,8.61
2018-09-22T05:59:36.092Z,8.52
2018-09-22T06:00:36.090Z,8.55
2018-09-22T06:01:36.181Z,8.6
2018-09-22T06:02:36.105Z,8.53
2018-09-22T06:03:36.812Z,8.63
2018-09-22T06:04:36.078Z,8.66
2018-09-22T06:05:36.123Z,8.65
2018-09-22T06:06:36.031Z,8.6
2018-09-22T06:07:37.143Z,8.53
2018-09-22T06:08:36.235Z,8.54
2018-09-22T06:09:36.344Z,8.54
2018-09-22T06:10:36.022Z,8.6
2018-09-22T06:11:36.266Z,8.59
2018-09-22T06:12:36.081Z,8.56
2018-09-22T06:13:36.114Z,8.55
2018-09-22T06:14:36.082Z,8.54
2018-09-22T06:15:36.123Z,8.58
2018-09-22T06:16:36.290Z,8.59
2018-09-22T06:17:36.073Z,8.64
2018-09-22T06:18:36.103Z,8.67
2018-09-22T06:19:36.133Z,8.62
2018-09-22T06:20:36.075Z,8.65
2018-09-22T06:21:36.080Z,8.66
2018-09-22T06:22:36.112Z,8.65
2018-09-22T06:23:36.421Z,8.64
2018-09-22T06:24:36.094Z,8.68
2018-09-22T06:25:36.809Z,8.6
2018-09-22T06:26:36.036Z,8.65
2018-09-22T06:27:36.095Z,8.63
2018-09-22T06:28:36.180Z,8.59
2018-09-22T06:29:36.040Z,8.57
2018-09-22T06:30:36.129Z,8.65
2018-09-22T06:31:36.082Z,8.68
2018-09-22T06:32:36.007Z,8.66
2018-09-22T06:33:36.075Z,8.65
2018-09-22T06:34:36.101Z,8.6
2018-09-22T06:35:36.089Z,8.71
2018-09-22T06:36:36.025Z,8.72
2018-09-22T06:37:36.043Z,8.76
2018-09-22T06:38:36.140Z,8.67
2018-09-22T06:39:36.228Z,8.77
2018-09-22T06:40:36.018Z,8.63
2018-09-22T06:41:36.032Z,8.63
2018-09-22T06:42:36.056Z,8.67
2018-09-22T06:43:36.113Z,8.64
2018-09-22T06:44:36.027Z,8.72
2018-09-22T06:45:36.022Z,8.72
2018-09-22T06:46:36.103Z,8.71
2018-09-22T06:47:36.173Z,8.69
2018-09-22T06:48:36.076Z,8.75
2018-09-22T06:49:36.063Z,8.76
2018-09-22T06:50:36.065Z,8.79
2018-09-22T06:51:36.054Z,8.77
2018-09-22T06:53:36.042Z,8.8
2018-09-22T06:54:36.023Z,8.75
2018-09-22T06:55:36.184Z,8.78
2018-09-22T06:56:36.000Z,8.86
2018-09-22T06:57:36.096Z,8.88
2018-09-22T06:58:36.040Z,8.84
2018-09-22T06:59:36.019Z,8.82
2018-09-22T07:00:36.025Z,8.92
2018-09-22T07:01:36.018Z,8.98
2018-09-22T07:02:36.090Z,8.92
2018-09-22T07:03:36.064Z,8.95
2018-09-22T07:04:35.969Z,8.96
2018-09-22T07:05:36.047Z,9.04
2018-09-22T07:06:36.056Z,9.03
2018-09-22T07:07:36.339Z,9.02
2018-09-22T07:08:36.174Z,9
2018-09-22T07:09:36.039Z,9
2018-09-22T07:10:36.060Z,9.03
2018-09-22T07:11:36.120Z,8.95
2018-09-22T07:12:36.058Z,8.91
2018-09-22T07:13:36.145Z,8.95
2018-09-22T07:14:36.117Z,8.94
2018-09-22T07:15:36.067Z,8.92
2018-09-22T07:16:36.065Z,8.86
2018-09-22T07:17:36.043Z,8.85
2018-09-22T07:18:36.107Z,8.93
2018-09-22T07:19:36.815Z,8.91
2018-09-22T07:20:36.062Z,8.97
2018-09-22T07:21:36.026Z,8.91
2018-09-22T07:22:36.040Z,8.96
2018-09-22T07:23:36.158Z,8.96
2018-09-22T07:24:36.160Z,8.79
2018-09-22T07:25:36.117Z,8.95
2018-09-22T07:26:36.043Z,8.99
2018-09-22T07:27:36.223Z,8.89
2018-09-22T07:28:36.052Z,8.94
2018-09-22T07:29:36.320Z,8.99
2018-09-22T07:30:36.114Z,9.02
2018-09-22T07:31:36.101Z,9.12
2018-09-22T07:32:36.118Z,9.02
2018-09-22T07:33:36.064Z,9.03
2018-09-22T07:34:36.216Z,9.05
2018-09-22T07:35:36.165Z,9.05
2018-09-22T07:36:36.145Z,9.05
2018-09-22T07:37:36.015Z,9.07
2018-09-22T07:38:36.116Z,9.11
2018-09-22T07:39:36.056Z,9.08
2018-09-22T07:40:36.020Z,8.94
2018-09-22T07:41:36.172Z,8.8
2018-09-22T07:42:36.126Z,8.97
2018-09-22T07:43:36.054Z,8.94
2018-09-22T07:44:36.070Z,9
2018-09-22T07:45:36.194Z,9.02
2018-09-22T07:46:36.069Z,8.95
2018-09-22T07:47:36.167Z,8.93
2018-09-22T07:48:36.201Z,8.89
2018-09-22T07:49:36.080Z,8.81
2018-09-22T07:50:36.107Z,8.7
2018-09-22T07:51:36.091Z,8.74
2018-09-22T07:52:36.035Z,8.79
2018-09-22T07:53:36.569Z,8.73
2018-09-22T07:54:36.147Z,8.71
2018-09-22T07:55:36.089Z,8.63
2018-09-22T07:56:36.219Z,8.75
2018-09-22T07:57:36.238Z,8.71
2018-09-22T07:58:36.213Z,8.68
2018-09-22T07:59:36.098Z,8.72
2018-09-22T08:00:36.502Z,8.58
2018-09-22T08:01:36.286Z,8.69
2018-09-22T08:02:36.129Z,8.6
2018-09-22T08:03:36.229Z,8.55
2018-09-22T08:04:36.159Z,8.61
2018-09-22T08:05:36.177Z,8.71
2018-09-22T08:06:36.059Z,8.77
2018-09-22T08:07:36.129Z,8.56
2018-09-22T08:08:36.063Z,8.3
2018-09-22T08:09:36.027Z,8.35
2018-09-22T08:10:36.121Z,8.46
2018-09-22T08:11:36.437Z,8.48
2018-09-22T08:12:36.029Z,8.52
2018-09-22T08:13:36.056Z,8.36
2018-09-22T08:14:36.060Z,8.51
2018-09-22T08:15:36.097Z,8.46
2018-09-22T08:16:36.261Z,8.5
2018-09-22T08:17:36.123Z,8.44
2018-09-22T08:18:36.258Z,8.56
2018-09-22T08:19:36.921Z,8.66
2018-09-22T08:20:36.162Z,8.7
2018-09-22T08:21:36.139Z,8.57
2018-09-22T08:22:36.139Z,8.51
2018-09-22T08:23:36.059Z,8.49
2018-09-22T08:24:36.722Z,8.56
2018-09-22T08:25:36.070Z,8.39
2018-09-22T08:26:36.087Z,8.66
2018-09-22T08:27:36.250Z,8.29
2018-09-22T08:28:36.145Z,8.22
2018-09-22T08:29:36.183Z,8.13
2018-09-22T08:30:36.426Z,8
2018-09-22T08:31:36.199Z,7.98
2018-09-22T08:32:36.233Z,8.07
2018-09-22T08:33:36.158Z,7.93
2018-09-22T08:34:36.192Z,8.03
2018-09-22T08:35:36.195Z,8
2018-09-22T08:36:37.903Z,8
2018-09-22T08:37:36.624Z,8.06
2018-09-22T08:38:36.081Z,8.04
2018-09-22T08:39:37.555Z,8.08
2018-09-22T08:40:36.175Z,8.01
2018-09-22T08:41:37.210Z,7.82
2018-09-22T08:42:36.190Z,7.86
2018-09-22T08:43:38.084Z,7.94
2018-09-22T08:44:36.190Z,7.96
2018-09-22T08:45:36.257Z,7.94
2018-09-22T08:46:36.084Z,8.02
2018-09-22T08:47:36.178Z,7.96
2018-09-22T08:48:36.101Z,8.01
2018-09-22T08:49:36.545Z,8.13
2018-09-22T08:50:36.096Z,8.17
2018-09-22T08:51:36.274Z,8.14
2018-09-22T08:52:36.078Z,8.18
2018-09-22T08:53:36.919Z,8.16
2018-09-22T08:54:36.127Z,7.95
2018-09-22T08:55:36.125Z,8.09
2018-09-22T08:56:36.609Z,8.02
2018-09-22T08:57:36.508Z,8.19
2018-09-22T08:58:36.160Z,8.13
2018-09-22T08:59:36.113Z,8.23
2018-09-22T09:00:36.887Z,8.16
2018-09-22T09:01:36.311Z,8.11
2018-09-22T09:02:36.294Z,8.12
2018-09-22T09:03:36.198Z,8.25
2018-09-22T09:04:36.160Z,8.25
2018-09-22T09:05:36.255Z,8.19
2018-09-22T09:06:36.144Z,8.16
2018-09-22T09:07:36.957Z,7.95
2018-09-22T09:08:36.309Z,7.94
2018-09-22T09:09:36.228Z,7.87
2018-09-22T09:10:36.106Z,7.99
2018-09-22T09:11:36.131Z,7.97
2018-09-22T09:12:36.112Z,8.04
2018-09-22T09:13:36.213Z,8.08
2018-09-22T09:14:36.421Z,8.1
2018-09-22T09:15:36.605Z,8.13
2018-09-22T09:16:36.240Z,8.22
2018-09-22T09:17:36.146Z,8.24
2018-09-22T09:18:36.136Z,8.12
2018-09-22T09:19:36.106Z,8.25
2018-09-22T09:20:36.094Z,8.24
2018-09-22T09:21:36.108Z,8.27
2018-09-22T09:22:36.119Z,8.33
2018-09-22T09:23:36.187Z,8.31
2018-09-22T09:24:36.807Z,8.27
2018-09-22T09:25:36.139Z,8.46
2018-09-22T09:26:36.194Z,8.27
2018-09-22T09:27:36.633Z,8.42
2018-09-22T09:28:36.112Z,8.49
2018-09-22T09:29:36.096Z,8.46
2018-09-22T09:30:36.211Z,8.55
2018-09-22T09:31:36.181Z,8.18
2018-09-22T09:32:36.087Z,8.33
2018-09-22T09:33:36.140Z,8.24
2018-09-22T09:34:36.943Z,8.21
2018-09-22T09:35:36.100Z,8.37
2018-09-22T09:36:36.214Z,8.41
2018-09-22T09:37:36.266Z,8.42
2018-09-22T09:38:36.585Z,8.42
2018-09-22T09:39:36.169Z,8.35
2018-09-22T09:40:36.166Z,8.41
2018-09-22T09:41:36.323Z,8.37
2018-09-22T09:42:36.300Z,8.28
2018-09-22T09:43:36.439Z,8.27
2018-09-22T09:44:36.185Z,8.37
2018-09-22T09:45:37.019Z,8.44
2018-09-22T09:46:36.311Z,8.29
2018-09-22T09:47:36.274Z,8.34
2018-09-22T09:48:36.270Z,8.23
2018-09-22T09:49:36.272Z,8.21
2018-09-22T09:50:36.462Z,8.18
2018-09-22T09:51:36.202Z,8.14
2018-09-22T09:52:36.187Z,7.78
2018-09-22T09:53:37.079Z,7.74
2018-09-22T09:54:36.806Z,7.96
2018-09-22T09:55:36.259Z,8.02
2018-09-22T09:56:36.142Z,7.85
2018-09-22T09:57:36.122Z,7.98
2018-09-22T09:58:36.142Z,7.54
2018-09-22T09:59:36.222Z,7.45
2018-09-22T10:00:36.109Z,7.63
2018-09-22T10:01:36.118Z,7.67
2018-09-22T10:02:36.148Z,7.6
2018-09-22T10:03:36.313Z,7.72
2018-09-22T10:04:36.240Z,8.04
2018-09-22T10:05:36.290Z,7.83
2018-09-22T10:06:36.148Z,7.99
2018-09-22T10:07:36.259Z,7.67
2018-09-22T10:08:36.120Z,7.8
2018-09-22T10:09:36.306Z,7.9
2018-09-22T10:10:36.126Z,7.94
2018-09-22T10:11:36.424Z,7.89
2018-09-22T10:12:36.173Z,8.16
2018-09-22T10:13:36.458Z,8.14
2018-09-22T10:14:39.865Z,7.9
2018-09-22T10:15:36.300Z,8.07
2018-09-22T10:16:36.233Z,7.82
2018-09-22T10:17:36.551Z,7.96
2018-09-22T10:18:36.246Z,7.82
2018-09-22T10:19:36.186Z,7.85
2018-09-22T10:20:36.188Z,8.17
2018-09-22T10:21:37.927Z,8
2018-09-22T10:22:36.255Z,7.68
2018-09-22T10:23:36.203Z,7.31
2018-09-22T10:24:38.189Z,7.39
2018-09-22T10:25:36.427Z,7.46
2018-09-22T10:26:36.415Z,7.55
2018-09-22T10:27:36.303Z,7.65
2018-09-22T10:28:36.642Z,7.65
2018-09-22T10:29:36.187Z,7.77
2018-09-22T10:30:36.183Z,7.51
2018-09-22T10:31:36.457Z,7.56
2018-09-22T10:32:36.244Z,7.51
2018-09-22T10:33:36.187Z,7.38
2018-09-22T10:34:36.355Z,7.3
2018-09-22T10:35:36.286Z,7.51
2018-09-22T10:36:36.307Z,6.64
2018-09-22T10:37:36.429Z,6.46
2018-09-22T10:38:36.339Z,6.7
2018-09-22T10:39:36.478Z,6.84
2018-09-22T10:40:36.201Z,6.68
2018-09-22T10:41:36.201Z,6.8
2018-09-22T10:42:36.237Z,6.67
2018-09-22T10:43:36.152Z,6.8
2018-09-22T10:44:36.160Z,6.73
2018-09-22T10:45:36.228Z,7.06
2018-09-22T10:46:36.601Z,7.24
2018-09-22T10:47:36.217Z,7.16
2018-09-22T10:48:36.278Z,7.21
2018-09-22T10:49:36.497Z,7.27
2018-09-22T10:50:36.158Z,7.31
2018-09-22T10:51:36.344Z,7.3
2018-09-22T10:52:36.923Z,7.11
2018-09-22T10:53:36.358Z,7.12
2018-09-22T10:54:36.357Z,7.04
2018-09-22T10:55:36.368Z,7.18
2018-09-22T10:56:36.375Z,7.31
2018-09-22T10:57:36.115Z,7.39
2018-09-22T10:58:36.289Z,7.29
2018-09-22T10:59:36.286Z,7.35
2018-09-22T11:00:37.740Z,7.59
2018-09-22T11:01:37.395Z,7.44
2018-09-22T11:02:36.406Z,7.24
2018-09-22T11:03:36.636Z,6.79
2018-09-22T11:04:36.311Z,6.97
2018-09-22T11:05:36.342Z,6.82
2018-09-22T11:06:36.482Z,7.07
2018-09-22T11:07:36.457Z,6.66
2018-09-22T11:08:36.366Z,6.5
2018-09-22T11:09:36.300Z,6.43
2018-09-22T11:10:36.262Z,6.46
2018-09-22T11:11:36.312Z,6.11
2018-09-22T11:12:36.495Z,5.94
2018-09-22T11:13:36.384Z,6.26
2018-09-22T11:14:36.508Z,6.07
2018-09-22T11:15:36.412Z,6.31
2018-09-22T11:16:36.513Z,6.57
2018-09-22T11:17:36.188Z,6.31
2018-09-22T11:18:51.344Z,6.32
2018-09-22T11:19:36.339Z,5.96
2018-09-22T11:20:36.332Z,6.33
2018-09-22T11:21:36.350Z,6.38
2018-09-22T11:22:36.353Z,6.43
2018-09-22T11:23:36.353Z,6.71
2018-09-22T11:24:36.462Z,6.53
2018-09-22T11:25:36.361Z,6.47
2018-09-22T11:26:36.658Z,6.6
2018-09-22T11:27:36.270Z,6.49
2018-09-22T11:28:36.285Z,6.18
2018-09-22T11:29:36.297Z,6.42
2018-09-22T11:30:36.198Z,6.48
2018-09-22T11:31:36.361Z,6.28
2018-09-22T11:32:36.731Z,6.34
2018-09-22T11:33:36.286Z,6.59
2018-09-22T11:34:36.382Z,6.52
2018-09-22T11:35:36.242Z,6.47
2018-09-22T11:36:36.226Z,5.9
2018-09-22T11:37:36.512Z,5.94
2018-09-22T11:38:36.271Z,6.12
2018-09-22T11:39:36.168Z,6
2018-09-22T11:40:37.215Z,5.91
2018-09-22T11:41:36.345Z,5.63
2018-09-22T11:42:36.310Z,5.96
2018-09-22T11:43:36.175Z,5.9
2018-09-22T11:44:36.237Z,6
2018-09-22T11:45:36.409Z,6.02
2018-09-22T11:46:36.230Z,6.17
2018-09-22T11:47:36.158Z,6.1
2018-09-22T11:48:36.158Z,6.12
2018-09-22T11:49:36.224Z,6.07
2018-09-22T11:50:36.249Z,5.78
2018-09-22T11:51:36.321Z,5.98
2018-09-22T11:52:36.251Z,6.03
2018-09-22T11:53:36.367Z,5.61
2018-09-22T11:54:36.420Z,5.66
2018-09-22T11:55:36.292Z,5.87
2018-09-22T11:56:36.673Z,6.09
2018-09-22T11:57:36.174Z,6.22
2018-09-22T11:58:36.541Z,6.1
2018-09-22T11:59:36.179Z,6.1
2018-09-22T12:00:36.307Z,6.05
2018-09-22T12:01:36.202Z,6
2018-09-22T12:02:36.227Z,6.04
2018-09-22T12:03:36.227Z,5.91
2018-09-22T12:04:36.224Z,6.01
2018-09-22T12:05:36.237Z,6.07
2018-09-22T12:06:37.047Z,6.03
2018-09-22T12:07:36.212Z,6.01
2018-09-22T12:08:36.204Z,5.9
2018-09-22T12:09:36.168Z,6.02
2018-09-22T12:10:36.244Z,5.99
2018-09-22T12:11:36.432Z,6.01
2018-09-22T12:12:36.219Z,6.19
2018-09-22T12:13:36.215Z,6.2
2018-09-22T12:14:36.252Z,6.05
2018-09-22T12:15:36.188Z,6.3
2018-09-22T12:16:36.266Z,6.15
2018-09-22T12:17:36.226Z,5.88
2018-09-22T12:18:36.220Z,6.06
2018-09-22T12:19:36.264Z,5.88
2018-09-22T12:20:36.226Z,5.83
2018-09-22T12:21:36.225Z,5.79
2018-09-22T12:22:36.508Z,5.81
2018-09-22T12:23:36.296Z,6.14
2018-09-22T12:24:36.386Z,6.08
2018-09-22T12:25:36.885Z,5.86
2018-09-22T12:26:36.718Z,6.15
2018-09-22T12:27:36.617Z,6.26
2018-09-22T12:28:36.272Z,6.02
2018-09-22T12:29:36.324Z,5.93
2018-09-22T12:30:36.256Z,5.84
2018-09-22T12:31:36.388Z,6.06
2018-09-22T12:32:36.236Z,6.03
2018-09-22T12:33:36.444Z,6.09
2018-09-22T12:34:36.406Z,5.99
2018-09-22T12:35:36.487Z,5.69
2018-09-22T12:36:36.304Z,5.86
2018-09-22T12:37:36.452Z,5.57
2018-09-22T12:38:36.299Z,5.87
2018-09-22T12:39:36.237Z,5.71
2018-09-22T12:40:36.348Z,5.77
2018-09-22T12:41:36.364Z,5.84
2018-09-22T12:42:36.301Z,5.84
2018-09-22T12:43:36.320Z,5.83
2018-09-22T12:44:36.302Z,5.81
2018-09-22T12:45:36.208Z,5.6
2018-09-22T12:46:36.634Z,5.77
2018-09-22T12:47:36.397Z,5.89
2018-09-22T12:48:36.278Z,5.9
2018-09-22T12:49:36.286Z,5.88
2018-09-22T12:50:36.265Z,5.92
2018-09-22T12:51:36.233Z,5.95
2018-09-22T12:52:36.357Z,5.92
2018-09-22T12:53:36.495Z,6.14
2018-09-22T12:54:36.339Z,5.74
2018-09-22T12:55:36.285Z,5.85
2018-09-22T12:56:36.311Z,5.62
2018-09-22T12:57:36.234Z,5.69
2018-09-22T12:58:36.283Z,5.73
2018-09-22T12:59:36.241Z,6.01
2018-09-22T13:00:36.379Z,6.1
2018-09-22T13:01:36.309Z,5.72
2018-09-22T13:02:36.269Z,5.95
2018-09-22T13:03:36.417Z,5.36
2018-09-22T13:04:36.258Z,5.48
2018-09-22T13:05:36.303Z,5.78
2018-09-22T13:06:36.251Z,5.8
2018-09-22T13:07:36.230Z,5.73
2018-09-22T13:08:36.437Z,5.82
2018-09-22T13:09:36.500Z,5.89
2018-09-22T13:10:36.527Z,5.8
2018-09-22T13:11:36.500Z,5.84
2018-09-22T13:12:35.612Z,5.86
2018-09-22T13:13:35.897Z,5.92
2018-09-22T13:15:41.861Z,5.81
2018-09-22T13:17:35.162Z,5.79
2018-09-22T13:18:35.507Z,5.82
2018-09-22T13:21:35.323Z,5.87
2018-09-22T13:22:35.136Z,5.86
2018-09-22T13:25:35.098Z,6.09
2018-09-22T13:26:35.121Z,5.5
2018-09-22T13:28:43.465Z,5.79